sensor_id;sensor_type;location;lat;lon;timestamp;P1;durP1;ratioP1;P2;durP2;ratioP2
1410;SDS011;700;51.906;8.404;2023-02-15T00:04:22;15.93;;;11.63;;
1410;SDS011;700;51.906;8.404;2023-02-15T00:09:27;17.77;;;11.27;;
1410;SDS011;700;51.906;8.404;2023-02-15T00:14:30;17.50;;;10.77;;
1410;SDS011;700;51.906;8.404;2023-02-15T00:19:35;16.30;;;10.87;;
1410;SDS011;700;51.906;8.404;2023-02-15T00:24:35;17.63;;;12.37;;
1410;SDS011;700;51.906;8.404;2023-02-15T00:29:38;14.40;;;10.23;;
1410;SDS011;700;51.906;8.404;2023-02-15T00:34:41;14.03;;;10.40;;
1410;SDS011;700;51.906;8.404;2023-02-15T00:39:41;14.77;;;9.50;;
1410;SDS011;700;51.906;8.404;2023-02-15T00:44:45;16.80;;;11.83;;
1410;SDS011;700;51.906;8.404;2023-02-15T00:49:46;14.53;;;9.47;;
1410;SDS011;700;51.906;8.404;2023-02-15T00:54:51;13.23;;;9.47;;
1410;SDS011;700;51.906;8.404;2023-02-15T00:59:52;15.77;;;10.93;;
1410;SDS011;700;51.906;8.404;2023-02-15T01:04:55;16.13;;;10.20;;
1410;SDS011;700;51.906;8.404;2023-02-15T01:09:55;15.50;;;9.97;;
1410;SDS011;700;51.906;8.404;2023-02-15T01:14:58;14.73;;;9.77;;
1410;SDS011;700;51.906;8.404;2023-02-15T01:19:59;13.43;;;9.57;;
1410;SDS011;700;51.906;8.404;2023-02-15T01:25:03;13.70;;;10.10;;
1410;SDS011;700;51.906;8.404;2023-02-15T01:30:06;14.50;;;10.13;;
1410;SDS011;700;51.906;8.404;2023-02-15T01:35:09;14.83;;;9.17;;
1410;SDS011;700;51.906;8.404;2023-02-15T01:40:13;13.70;;;10.90;;
1410;SDS011;700;51.906;8.404;2023-02-15T01:50:22;15.10;;;10.37;;
1410;SDS011;700;51.906;8.404;2023-02-15T01:55:39;12.70;;;9.53;;
1410;SDS011;700;51.906;8.404;2023-02-15T02:00:43;13.20;;;9.90;;
1410;SDS011;700;51.906;8.404;2023-02-15T02:05:45;14.87;;;10.20;;
1410;SDS011;700;51.906;8.404;2023-02-15T02:10:49;12.50;;;9.67;;
1410;SDS011;700;51.906;8.404;2023-02-15T02:15:54;13.43;;;9.67;;
1410;SDS011;700;51.906;8.404;2023-02-15T02:32:23;16.70;;;10.20;;
1410;SDS011;700;51.906;8.404;2023-02-15T02:38:05;14.00;;;10.30;;
1410;SDS011;700;51.906;8.404;2023-02-15T02:43:21;15.70;;;10.53;;
1410;SDS011;700;51.906;8.404;2023-02-15T02:48:34;16.53;;;11.10;;
1410;SDS011;700;51.906;8.404;2023-02-15T02:53:36;19.50;;;11.83;;
1410;SDS011;700;51.906;8.404;2023-02-15T02:58:41;17.87;;;10.00;;
1410;SDS011;700;51.906;8.404;2023-02-15T03:03:47;15.63;;;10.83;;
1410;SDS011;700;51.906;8.404;2023-02-15T03:08:58;15.57;;;10.47;;
1410;SDS011;700;51.906;8.404;2023-02-15T03:14:06;13.73;;;10.17;;
1410;SDS011;700;51.906;8.404;2023-02-15T03:24:11;15.70;;;11.10;;
1410;SDS011;700;51.906;8.404;2023-02-15T03:29:17;13.80;;;9.43;;
1410;SDS011;700;51.906;8.404;2023-02-15T03:34:23;13.10;;;10.00;;
1410;SDS011;700;51.906;8.404;2023-02-15T03:45:02;17.97;;;10.53;;
1410;SDS011;700;51.906;8.404;2023-02-15T03:50:11;15.30;;;10.10;;
1410;SDS011;700;51.906;8.404;2023-02-15T03:55:39;13.50;;;9.80;;
1410;SDS011;700;51.906;8.404;2023-02-15T04:00:40;13.20;;;9.00;;
1410;SDS011;700;51.906;8.404;2023-02-15T04:06:09;13.70;;;9.93;;
1410;SDS011;700;51.906;8.404;2023-02-15T04:11:12;11.97;;;9.60;;
1410;SDS011;700;51.906;8.404;2023-02-15T04:16:13;12.97;;;9.67;;
1410;SDS011;700;51.906;8.404;2023-02-15T04:21:14;13.83;;;9.23;;
1410;SDS011;700;51.906;8.404;2023-02-15T04:26:35;16.00;;;11.07;;
1410;SDS011;700;51.906;8.404;2023-02-15T04:31:36;14.60;;;9.97;;
1410;SDS011;700;51.906;8.404;2023-02-15T04:36:37;14.70;;;10.90;;
1410;SDS011;700;51.906;8.404;2023-02-15T04:41:38;14.07;;;9.50;;
1410;SDS011;700;51.906;8.404;2023-02-15T04:46:39;16.10;;;10.07;;
1410;SDS011;700;51.906;8.404;2023-02-15T04:51:42;15.23;;;10.80;;
1410;SDS011;700;51.906;8.404;2023-02-15T04:56:50;15.03;;;10.40;;
1410;SDS011;700;51.906;8.404;2023-02-15T05:01:51;15.57;;;10.83;;
1410;SDS011;700;51.906;8.404;2023-02-15T05:06:52;12.70;;;9.77;;
1410;SDS011;700;51.906;8.404;2023-02-15T05:11:55;12.70;;;9.60;;
1410;SDS011;700;51.906;8.404;2023-02-15T05:16:55;15.20;;;10.17;;
1410;SDS011;700;51.906;8.404;2023-02-15T05:21:58;18.60;;;10.20;;
1410;SDS011;700;51.906;8.404;2023-02-15T05:27:03;13.83;;;9.90;;
1410;SDS011;700;51.906;8.404;2023-02-15T05:32:22;14.70;;;10.13;;
1410;SDS011;700;51.906;8.404;2023-02-15T05:37:23;14.60;;;9.93;;
1410;SDS011;700;51.906;8.404;2023-02-15T05:42:24;15.40;;;10.20;;
1410;SDS011;700;51.906;8.404;2023-02-15T05:47:29;14.07;;;9.83;;
1410;SDS011;700;51.906;8.404;2023-02-15T05:52:33;14.87;;;10.20;;
1410;SDS011;700;51.906;8.404;2023-02-15T05:57:34;13.23;;;9.70;;
1410;SDS011;700;51.906;8.404;2023-02-15T06:02:35;15.20;;;9.73;;
1410;SDS011;700;51.906;8.404;2023-02-15T06:07:37;13.27;;;10.17;;
1410;SDS011;700;51.906;8.404;2023-02-15T06:12:37;17.57;;;13.70;;
1410;SDS011;700;51.906;8.404;2023-02-15T06:17:40;16.63;;;11.60;;
1410;SDS011;700;51.906;8.404;2023-02-15T06:22:41;14.50;;;10.30;;
1410;SDS011;700;51.906;8.404;2023-02-15T06:27:42;17.27;;;11.00;;
1410;SDS011;700;51.906;8.404;2023-02-15T06:32:43;16.67;;;11.00;;
1410;SDS011;700;51.906;8.404;2023-02-15T06:37:44;18.00;;;11.30;;
1410;SDS011;700;51.906;8.404;2023-02-15T06:42:45;18.00;;;10.60;;
1410;SDS011;700;51.906;8.404;2023-02-15T06:47:46;15.50;;;10.80;;
1410;SDS011;700;51.906;8.404;2023-02-15T06:52:47;17.13;;;11.80;;
1410;SDS011;700;51.906;8.404;2023-02-15T06:57:47;18.00;;;10.70;;
1410;SDS011;700;51.906;8.404;2023-02-15T07:02:52;17.57;;;11.97;;
1410;SDS011;700;51.906;8.404;2023-02-15T07:07:55;16.03;;;10.23;;
1410;SDS011;700;51.906;8.404;2023-02-15T07:12:55;14.77;;;10.47;;
1410;SDS011;700;51.906;8.404;2023-02-15T07:17:57;13.13;;;10.33;;
1410;SDS011;700;51.906;8.404;2023-02-15T07:22:58;14.37;;;9.57;;
1410;SDS011;700;51.906;8.404;2023-02-15T07:27:59;11.97;;;9.50;;
1410;SDS011;700;51.906;8.404;2023-02-15T07:33:01;14.00;;;9.37;;
1410;SDS011;700;51.906;8.404;2023-02-15T07:38:20;12.67;;;9.80;;
1410;SDS011;700;51.906;8.404;2023-02-15T07:43:21;13.33;;;9.73;;
1410;SDS011;700;51.906;8.404;2023-02-15T07:48:24;11.80;;;9.07;;
1410;SDS011;700;51.906;8.404;2023-02-15T07:53:27;12.83;;;10.50;;
1410;SDS011;700;51.906;8.404;2023-02-15T07:58:28;12.87;;;9.53;;
1410;SDS011;700;51.906;8.404;2023-02-15T08:03:48;12.93;;;9.80;;
1410;SDS011;700;51.906;8.404;2023-02-15T08:08:48;12.10;;;9.47;;
1410;SDS011;700;51.906;8.404;2023-02-15T08:13:50;11.30;;;9.13;;
1410;SDS011;700;51.906;8.404;2023-02-15T08:18:56;11.80;;;9.43;;
1410;SDS011;700;51.906;8.404;2023-02-15T08:23:58;15.50;;;10.03;;
1410;SDS011;700;51.906;8.404;2023-02-15T08:29:04;11.23;;;9.57;;
1410;SDS011;700;51.906;8.404;2023-02-15T08:34:08;10.33;;;8.80;;
1410;SDS011;700;51.906;8.404;2023-02-15T08:39:14;10.47;;;8.77;;
1410;SDS011;700;51.906;8.404;2023-02-15T08:44:17;15.87;;;9.53;;
1410;SDS011;700;51.906;8.404;2023-02-15T08:49:21;13.00;;;10.50;;
1410;SDS011;700;51.906;8.404;2023-02-15T08:54:22;11.37;;;9.20;;
1410;SDS011;700;51.906;8.404;2023-02-15T08:59:22;17.03;;;10.43;;
1410;SDS011;700;51.906;8.404;2023-02-15T09:04:27;11.60;;;9.50;;
1410;SDS011;700;51.906;8.404;2023-02-15T09:09:30;11.43;;;10.23;;
1410;SDS011;700;51.906;8.404;2023-02-15T09:14:32;13.37;;;10.03;;
1410;SDS011;700;51.906;8.404;2023-02-15T09:19:33;11.03;;;10.03;;
1410;SDS011;700;51.906;8.404;2023-02-15T09:24:34;10.80;;;9.73;;
1410;SDS011;700;51.906;8.404;2023-02-15T09:29:34;10.57;;;9.60;;
1410;SDS011;700;51.906;8.404;2023-02-15T09:34:37;12.47;;;11.27;;
1410;SDS011;700;51.906;8.404;2023-02-15T09:39:39;11.10;;;10.00;;
1410;SDS011;700;51.906;8.404;2023-02-15T09:50:56;12.00;;;10.80;;
1410;SDS011;700;51.906;8.404;2023-02-15T09:55:41;10.97;;;9.80;;
1410;SDS011;700;51.906;8.404;2023-02-15T10:17:23;10.10;;;9.10;;
1410;SDS011;700;51.906;8.404;2023-02-15T10:22:28;12.07;;;10.57;;
1410;SDS011;700;51.906;8.404;2023-02-15T10:27:45;10.70;;;9.73;;
1410;SDS011;700;51.906;8.404;2023-02-15T10:33:04;11.13;;;9.87;;
1410;SDS011;700;51.906;8.404;2023-02-15T10:38:20;11.30;;;10.20;;
1410;SDS011;700;51.906;8.404;2023-02-15T11:09:24;11.93;;;10.60;;
1410;SDS011;700;51.906;8.404;2023-02-15T11:25:28;16.50;;;12.07;;
1410;SDS011;700;51.906;8.404;2023-02-15T11:30:40;13.90;;;11.20;;
1410;SDS011;700;51.906;8.404;2023-02-15T11:35:48;13.30;;;11.90;;
1410;SDS011;700;51.906;8.404;2023-02-15T11:40:58;12.60;;;11.30;;
1410;SDS011;700;51.906;8.404;2023-02-15T11:46:03;13.50;;;11.30;;
1410;SDS011;700;51.906;8.404;2023-02-15T11:51:04;14.27;;;11.10;;
1410;SDS011;700;51.906;8.404;2023-02-15T11:56:10;14.23;;;12.73;;
1410;SDS011;700;51.906;8.404;2023-02-15T12:01:32;15.17;;;13.00;;
1410;SDS011;700;51.906;8.404;2023-02-15T12:06:43;18.50;;;16.20;;
1410;SDS011;700;51.906;8.404;2023-02-15T12:11:50;18.83;;;14.77;;
1410;SDS011;700;51.906;8.404;2023-02-15T12:16:51;18.50;;;15.20;;
1410;SDS011;700;51.906;8.404;2023-02-15T12:21:54;19.40;;;14.93;;
1410;SDS011;700;51.906;8.404;2023-02-15T12:27:56;19.17;;;14.87;;
1410;SDS011;700;51.906;8.404;2023-02-15T12:32:31;17.40;;;14.37;;
1410;SDS011;700;51.906;8.404;2023-02-15T12:37:37;22.17;;;16.33;;
1410;SDS011;700;51.906;8.404;2023-02-15T12:42:43;20.70;;;15.10;;
1410;SDS011;700;51.906;8.404;2023-02-15T12:47:45;22.00;;;16.70;;
1410;SDS011;700;51.906;8.404;2023-02-15T12:52:46;22.97;;;16.17;;
1410;SDS011;700;51.906;8.404;2023-02-15T12:57:48;24.77;;;18.57;;
1410;SDS011;700;51.906;8.404;2023-02-15T13:02:54;25.40;;;17.80;;
1410;SDS011;700;51.906;8.404;2023-02-15T13:07:56;22.00;;;16.37;;
1410;SDS011;700;51.906;8.404;2023-02-15T13:13:02;23.00;;;16.50;;
1410;SDS011;700;51.906;8.404;2023-02-15T13:18:28;24.30;;;17.03;;
1410;SDS011;700;51.906;8.404;2023-02-15T13:23:31;20.00;;;16.40;;
1410;SDS011;700;51.906;8.404;2023-02-15T13:28:42;21.53;;;16.47;;
1410;SDS011;700;51.906;8.404;2023-02-15T13:33:54;18.20;;;15.93;;
1410;SDS011;700;51.906;8.404;2023-02-15T13:39:27;29.70;;;17.63;;
1410;SDS011;700;51.906;8.404;2023-02-15T14:00:35;20.77;;;16.60;;
1410;SDS011;700;51.906;8.404;2023-02-15T14:11:38;20.33;;;17.57;;
1410;SDS011;700;51.906;8.404;2023-02-15T14:16:58;21.97;;;17.73;;
1410;SDS011;700;51.906;8.404;2023-02-15T14:32:41;23.27;;;16.93;;
1410;SDS011;700;51.906;8.404;2023-02-15T14:53:44;19.37;;;13.90;;
1410;SDS011;700;51.906;8.404;2023-02-15T15:03:52;21.30;;;13.60;;
1410;SDS011;700;51.906;8.404;2023-02-15T15:08:58;21.17;;;14.50;;
1410;SDS011;700;51.906;8.404;2023-02-15T15:20:19;18.57;;;14.27;;
1410;SDS011;700;51.906;8.404;2023-02-15T15:24:55;16.50;;;12.10;;
1410;SDS011;700;51.906;8.404;2023-02-15T15:30:00;18.27;;;13.13;;
1410;SDS011;700;51.906;8.404;2023-02-15T15:40:42;22.70;;;15.00;;
1410;SDS011;700;51.906;8.404;2023-02-15T15:46:14;18.77;;;13.83;;
1410;SDS011;700;51.906;8.404;2023-02-15T15:51:31;28.77;;;15.00;;
1410;SDS011;700;51.906;8.404;2023-02-15T15:56:36;18.23;;;14.00;;
1410;SDS011;700;51.906;8.404;2023-02-15T16:01:43;21.60;;;15.40;;
1410;SDS011;700;51.906;8.404;2023-02-15T16:06:46;19.40;;;14.13;;
1410;SDS011;700;51.906;8.404;2023-02-15T16:11:48;20.73;;;14.67;;
1410;SDS011;700;51.906;8.404;2023-02-15T16:16:55;23.13;;;15.50;;
1410;SDS011;700;51.906;8.404;2023-02-15T16:22:00;23.37;;;16.53;;
1410;SDS011;700;51.906;8.404;2023-02-15T16:32:19;23.07;;;15.80;;
1410;SDS011;700;51.906;8.404;2023-02-15T16:37:25;26.17;;;17.03;;
1410;SDS011;700;51.906;8.404;2023-02-15T16:42:27;38.73;;;17.50;;
1410;SDS011;700;51.906;8.404;2023-02-15T16:47:29;22.30;;;16.13;;
1410;SDS011;700;51.906;8.404;2023-02-15T16:52:35;28.63;;;17.23;;
1410;SDS011;700;51.906;8.404;2023-02-15T16:57:44;25.30;;;16.23;;
1410;SDS011;700;51.906;8.404;2023-02-15T17:08:16;20.77;;;13.73;;
1410;SDS011;700;51.906;8.404;2023-02-15T17:13:17;18.47;;;12.63;;
1410;SDS011;700;51.906;8.404;2023-02-15T17:18:22;18.60;;;13.10;;
1410;SDS011;700;51.906;8.404;2023-02-15T17:23:29;17.57;;;12.50;;
1410;SDS011;700;51.906;8.404;2023-02-15T17:28:34;17.80;;;12.77;;
1410;SDS011;700;51.906;8.404;2023-02-15T17:33:37;20.80;;;13.30;;
1410;SDS011;700;51.906;8.404;2023-02-15T17:38:40;18.20;;;11.40;;
1410;SDS011;700;51.906;8.404;2023-02-15T17:43:58;20.00;;;12.27;;
1410;SDS011;700;51.906;8.404;2023-02-15T17:49:01;15.30;;;12.57;;
1410;SDS011;700;51.906;8.404;2023-02-15T17:54:03;15.00;;;12.23;;
1410;SDS011;700;51.906;8.404;2023-02-15T17:59:22;14.40;;;12.30;;
1410;SDS011;700;51.906;8.404;2023-02-15T18:04:25;21.30;;;13.97;;
1410;SDS011;700;51.906;8.404;2023-02-15T18:09:44;15.70;;;11.70;;
1410;SDS011;700;51.906;8.404;2023-02-15T18:15:04;15.60;;;11.57;;
1410;SDS011;700;51.906;8.404;2023-02-15T18:20:06;12.30;;;11.03;;
1410;SDS011;700;51.906;8.404;2023-02-15T18:25:27;13.90;;;11.47;;
1410;SDS011;700;51.906;8.404;2023-02-15T18:30:28;13.50;;;10.63;;
1410;SDS011;700;51.906;8.404;2023-02-15T18:35:30;15.63;;;10.20;;
1410;SDS011;700;51.906;8.404;2023-02-15T18:40:32;16.63;;;10.87;;
1410;SDS011;700;51.906;8.404;2023-02-15T18:45:32;16.53;;;12.33;;
1410;SDS011;700;51.906;8.404;2023-02-15T18:50:37;14.23;;;11.27;;
1410;SDS011;700;51.906;8.404;2023-02-15T18:55:38;14.73;;;10.90;;
1410;SDS011;700;51.906;8.404;2023-02-15T19:00:38;17.83;;;12.23;;
1410;SDS011;700;51.906;8.404;2023-02-15T19:05:40;14.90;;;11.90;;
1410;SDS011;700;51.906;8.404;2023-02-15T19:10:42;15.30;;;12.20;;
1410;SDS011;700;51.906;8.404;2023-02-15T19:15:43;18.80;;;12.03;;
1410;SDS011;700;51.906;8.404;2023-02-15T19:20:46;19.63;;;12.63;;
1410;SDS011;700;51.906;8.404;2023-02-15T19:25:50;18.27;;;13.10;;
1410;SDS011;700;51.906;8.404;2023-02-15T19:30:53;16.77;;;12.03;;
1410;SDS011;700;51.906;8.404;2023-02-15T19:35:58;17.97;;;12.80;;
1410;SDS011;700;51.906;8.404;2023-02-15T19:41:04;17.37;;;13.10;;
1410;SDS011;700;51.906;8.404;2023-02-15T19:46:09;18.07;;;13.03;;
1410;SDS011;700;51.906;8.404;2023-02-15T19:51:19;16.43;;;12.93;;
1410;SDS011;700;51.906;8.404;2023-02-15T19:56:26;19.50;;;13.50;;
1410;SDS011;700;51.906;8.404;2023-02-15T20:01:27;18.53;;;13.70;;
1410;SDS011;700;51.906;8.404;2023-02-15T20:06:28;18.53;;;13.77;;
1410;SDS011;700;51.906;8.404;2023-02-15T20:11:28;18.03;;;13.63;;
1410;SDS011;700;51.906;8.404;2023-02-15T20:16:29;17.67;;;12.73;;
1410;SDS011;700;51.906;8.404;2023-02-15T20:21:29;19.63;;;13.50;;
1410;SDS011;700;51.906;8.404;2023-02-15T20:26:30;22.63;;;15.93;;
1410;SDS011;700;51.906;8.404;2023-02-15T20:31:34;21.27;;;15.40;;
1410;SDS011;700;51.906;8.404;2023-02-15T20:36:35;21.93;;;14.07;;
1410;SDS011;700;51.906;8.404;2023-02-15T20:41:37;20.40;;;14.60;;
1410;SDS011;700;51.906;8.404;2023-02-15T20:46:46;21.73;;;14.47;;
1410;SDS011;700;51.906;8.404;2023-02-15T20:51:48;22.50;;;16.27;;
1410;SDS011;700;51.906;8.404;2023-02-15T20:56:50;25.47;;;17.40;;
1410;SDS011;700;51.906;8.404;2023-02-15T21:01:53;29.03;;;20.50;;
1410;SDS011;700;51.906;8.404;2023-02-15T21:07:01;22.67;;;17.00;;
1410;SDS011;700;51.906;8.404;2023-02-15T21:12:04;24.80;;;17.83;;
1410;SDS011;700;51.906;8.404;2023-02-15T21:17:11;27.40;;;17.00;;
1410;SDS011;700;51.906;8.404;2023-02-15T21:22:16;27.87;;;17.60;;
1410;SDS011;700;51.906;8.404;2023-02-15T21:27:17;26.10;;;16.40;;
1410;SDS011;700;51.906;8.404;2023-02-15T21:32:20;21.67;;;15.73;;
1410;SDS011;700;51.906;8.404;2023-02-15T21:37:25;22.97;;;15.70;;
1410;SDS011;700;51.906;8.404;2023-02-15T21:42:34;24.90;;;15.50;;
1410;SDS011;700;51.906;8.404;2023-02-15T21:47:53;22.43;;;15.67;;
1410;SDS011;700;51.906;8.404;2023-02-15T21:52:54;26.10;;;18.13;;
1410;SDS011;700;51.906;8.404;2023-02-15T21:57:55;28.03;;;19.43;;
1410;SDS011;700;51.906;8.404;2023-02-15T22:02:56;30.37;;;20.50;;
1410;SDS011;700;51.906;8.404;2023-02-15T22:07:59;33.30;;;22.27;;
1410;SDS011;700;51.906;8.404;2023-02-15T22:13:00;28.70;;;19.80;;
1410;SDS011;700;51.906;8.404;2023-02-15T22:18:02;27.83;;;19.17;;
1410;SDS011;700;51.906;8.404;2023-02-15T22:23:04;26.77;;;18.77;;
1410;SDS011;700;51.906;8.404;2023-02-15T22:28:04;28.93;;;20.20;;
1410;SDS011;700;51.906;8.404;2023-02-15T22:33:05;25.33;;;18.30;;
1410;SDS011;700;51.906;8.404;2023-02-15T22:38:15;24.87;;;16.67;;
1410;SDS011;700;51.906;8.404;2023-02-15T22:43:20;25.80;;;17.87;;
1410;SDS011;700;51.906;8.404;2023-02-15T22:48:28;26.93;;;17.43;;
1410;SDS011;700;51.906;8.404;2023-02-15T22:53:29;26.73;;;17.40;;
1410;SDS011;700;51.906;8.404;2023-02-15T22:58:30;20.97;;;15.40;;
1410;SDS011;700;51.906;8.404;2023-02-15T23:03:31;23.80;;;15.63;;
1410;SDS011;700;51.906;8.404;2023-02-15T23:08:32;25.53;;;17.13;;
1410;SDS011;700;51.906;8.404;2023-02-15T23:13:34;26.33;;;15.20;;
1410;SDS011;700;51.906;8.404;2023-02-15T23:18:39;25.03;;;15.80;;
1410;SDS011;700;51.906;8.404;2023-02-15T23:23:43;23.83;;;17.13;;
1410;SDS011;700;51.906;8.404;2023-02-15T23:28:45;25.10;;;15.93;;
1410;SDS011;700;51.906;8.404;2023-02-15T23:33:46;20.43;;;14.70;;
1410;SDS011;700;51.906;8.404;2023-02-15T23:38:49;22.17;;;15.10;;
1410;SDS011;700;51.906;8.404;2023-02-15T23:43:57;22.73;;;14.27;;
1410;SDS011;700;51.906;8.404;2023-02-15T23:49:00;22.83;;;16.20;;
1410;SDS011;700;51.906;8.404;2023-02-15T23:54:03;24.50;;;15.70;;
1410;SDS011;700;51.906;8.404;2023-02-15T23:59:04;25.53;;;17.03;;
